ENHD/HAU METAR and TAF weather

Enter ICAO airport designator
Station Type Date Time Source
ENHD METAR 2020/09/20 09:50 UTC NOAA

ENHD 200950Z VRB03KT 9999 FEW010 BKN016 14/10 Q1024


Station Type Date Time Source
ENHD Decoded METAR 2020/09/20 09:50 UTC NOAA

Haugesund / Karmoy, Norway (ENHD) 59-21N 005-13E 24M
Sep 20, 2020 - 05:50 AM EDT / 2020.09.20 0950 UTC
Wind: Variable at 3 MPH (3 KT):0
Visibility: greater than 7 mile(s):0
Sky conditions: mostly cloudy
Temperature: 57 F (14 C)
Dew Point: 50 F (10 C)
Relative Humidity: 76%
Pressure (altimeter): 30.24 in. Hg (1024 hPa)
ob: ENHD 200950Z VRB03KT 9999 FEW010 BKN016 14/10 Q1024
cycle: 10

Station Type Date Time Source
ENHD TAF UTC NOAA

Error!

Example: see airport list